sensor_id;sensor_type;location;lat;lon;timestamp;P1;durP1;ratioP1;P2;durP2;ratioP2
66575;SDS011;53428;47.686;16.584;2023-03-14T00:02:35;6.13;;;2.85;;
66575;SDS011;53428;47.686;16.584;2023-03-14T00:07:35;4.28;;;2.92;;
66575;SDS011;53428;47.686;16.584;2023-03-14T00:12:36;6.43;;;2.97;;
66575;SDS011;53428;47.686;16.584;2023-03-14T00:17:35;5.72;;;2.97;;
66575;SDS011;53428;47.686;16.584;2023-03-14T00:22:35;5.10;;;3.17;;
66575;SDS011;53428;47.686;16.584;2023-03-14T00:27:35;7.43;;;2.63;;
66575;SDS011;53428;47.686;16.584;2023-03-14T00:32:35;8.13;;;3.47;;
66575;SDS011;53428;47.686;16.584;2023-03-14T00:37:35;9.68;;;4.03;;
66575;SDS011;53428;47.686;16.584;2023-03-14T00:42:34;7.80;;;3.88;;
66575;SDS011;53428;47.686;16.584;2023-03-14T00:47:34;7.28;;;3.58;;
66575;SDS011;53428;47.686;16.584;2023-03-14T00:52:33;6.95;;;3.67;;
66575;SDS011;53428;47.686;16.584;2023-03-14T00:57:32;8.57;;;3.17;;
66575;SDS011;53428;47.686;16.584;2023-03-14T01:02:32;8.95;;;3.55;;
66575;SDS011;53428;47.686;16.584;2023-03-14T01:07:31;8.73;;;3.67;;
66575;SDS011;53428;47.686;16.584;2023-03-14T01:12:30;6.25;;;4.00;;
66575;SDS011;53428;47.686;16.584;2023-03-14T01:17:30;7.93;;;4.25;;
66575;SDS011;53428;47.686;16.584;2023-03-14T01:22:30;6.53;;;3.75;;
66575;SDS011;53428;47.686;16.584;2023-03-14T01:27:29;6.10;;;3.08;;
66575;SDS011;53428;47.686;16.584;2023-03-14T01:32:28;5.65;;;2.85;;
66575;SDS011;53428;47.686;16.584;2023-03-14T01:37:27;8.02;;;3.60;;
66575;SDS011;53428;47.686;16.584;2023-03-14T01:42:27;9.15;;;4.07;;
66575;SDS011;53428;47.686;16.584;2023-03-14T01:47:26;7.00;;;3.30;;
66575;SDS011;53428;47.686;16.584;2023-03-14T01:52:29;7.07;;;3.47;;
66575;SDS011;53428;47.686;16.584;2023-03-14T01:57:35;12.13;;;2.97;;
66575;SDS011;53428;47.686;16.584;2023-03-14T02:02:45;7.53;;;2.53;;
66575;SDS011;53428;47.686;16.584;2023-03-14T02:07:47;7.03;;;3.78;;
66575;SDS011;53428;47.686;16.584;2023-03-14T02:12:49;8.75;;;3.58;;
66575;SDS011;53428;47.686;16.584;2023-03-14T02:17:51;7.07;;;3.08;;
66575;SDS011;53428;47.686;16.584;2023-03-14T02:22:51;6.10;;;3.28;;
66575;SDS011;53428;47.686;16.584;2023-03-14T02:27:51;5.72;;;2.60;;
66575;SDS011;53428;47.686;16.584;2023-03-14T02:33:09;5.65;;;3.15;;
66575;SDS011;53428;47.686;16.584;2023-03-14T02:38:21;4.32;;;2.78;;
66575;SDS011;53428;47.686;16.584;2023-03-14T02:43:26;5.18;;;2.63;;
66575;SDS011;53428;47.686;16.584;2023-03-14T02:48:26;5.15;;;2.33;;
66575;SDS011;53428;47.686;16.584;2023-03-14T02:53:33;3.92;;;2.35;;
66575;SDS011;53428;47.686;16.584;2023-03-14T02:58:34;5.57;;;2.40;;
66575;SDS011;53428;47.686;16.584;2023-03-14T03:03:34;6.40;;;2.53;;
66575;SDS011;53428;47.686;16.584;2023-03-14T03:08:33;4.55;;;2.25;;
66575;SDS011;53428;47.686;16.584;2023-03-14T03:13:33;5.82;;;2.90;;
66575;SDS011;53428;47.686;16.584;2023-03-14T03:18:33;4.95;;;2.20;;
66575;SDS011;53428;47.686;16.584;2023-03-14T03:23:32;5.63;;;2.72;;
66575;SDS011;53428;47.686;16.584;2023-03-14T03:28:31;6.00;;;2.53;;
66575;SDS011;53428;47.686;16.584;2023-03-14T03:33:31;4.38;;;1.90;;
66575;SDS011;53428;47.686;16.584;2023-03-14T03:38:30;4.75;;;2.30;;
66575;SDS011;53428;47.686;16.584;2023-03-14T03:43:29;4.57;;;1.75;;
66575;SDS011;53428;47.686;16.584;2023-03-14T03:48:28;4.18;;;2.38;;
66575;SDS011;53428;47.686;16.584;2023-03-14T03:53:28;6.80;;;2.63;;
66575;SDS011;53428;47.686;16.584;2023-03-14T03:58:27;4.97;;;2.47;;
66575;SDS011;53428;47.686;16.584;2023-03-14T04:03:27;7.38;;;2.97;;
66575;SDS011;53428;47.686;16.584;2023-03-14T04:08:26;5.57;;;2.65;;
66575;SDS011;53428;47.686;16.584;2023-03-14T04:13:26;4.93;;;2.60;;
66575;SDS011;53428;47.686;16.584;2023-03-14T04:18:26;6.18;;;2.92;;
66575;SDS011;53428;47.686;16.584;2023-03-14T04:23:28;6.57;;;2.90;;
66575;SDS011;53428;47.686;16.584;2023-03-14T04:28:27;6.75;;;2.65;;
66575;SDS011;53428;47.686;16.584;2023-03-14T04:33:27;9.48;;;4.53;;
66575;SDS011;53428;47.686;16.584;2023-03-14T04:38:26;9.13;;;4.03;;
66575;SDS011;53428;47.686;16.584;2023-03-14T04:43:26;7.68;;;3.58;;
66575;SDS011;53428;47.686;16.584;2023-03-14T04:48:25;5.90;;;2.65;;
66575;SDS011;53428;47.686;16.584;2023-03-14T04:53:25;3.10;;;2.25;;
66575;SDS011;53428;47.686;16.584;2023-03-14T04:58:25;5.07;;;1.98;;
66575;SDS011;53428;47.686;16.584;2023-03-14T05:03:24;7.22;;;1.90;;
66575;SDS011;53428;47.686;16.584;2023-03-14T05:08:23;2.45;;;1.95;;
66575;SDS011;53428;47.686;16.584;2023-03-14T05:13:23;5.82;;;2.20;;
66575;SDS011;53428;47.686;16.584;2023-03-14T05:18:22;6.05;;;2.47;;
66575;SDS011;53428;47.686;16.584;2023-03-14T05:23:21;2.40;;;1.60;;
66575;SDS011;53428;47.686;16.584;2023-03-14T05:28:21;8.95;;;1.80;;
66575;SDS011;53428;47.686;16.584;2023-03-14T05:33:20;2.33;;;1.30;;
66575;SDS011;53428;47.686;16.584;2023-03-14T05:38:19;1.95;;;1.23;;
66575;SDS011;53428;47.686;16.584;2023-03-14T05:43:20;3.88;;;1.73;;
66575;SDS011;53428;47.686;16.584;2023-03-14T05:48:21;1.98;;;1.45;;
66575;SDS011;53428;47.686;16.584;2023-03-14T05:53:21;2.17;;;1.70;;
66575;SDS011;53428;47.686;16.584;2023-03-14T05:58:20;2.53;;;1.48;;
66575;SDS011;53428;47.686;16.584;2023-03-14T06:03:19;3.25;;;1.38;;
66575;SDS011;53428;47.686;16.584;2023-03-14T06:08:18;3.25;;;1.90;;
66575;SDS011;53428;47.686;16.584;2023-03-14T06:13:18;7.50;;;2.25;;
66575;SDS011;53428;47.686;16.584;2023-03-14T06:18:17;3.65;;;2.05;;
66575;SDS011;53428;47.686;16.584;2023-03-14T06:23:16;6.00;;;2.13;;
66575;SDS011;53428;47.686;16.584;2023-03-14T06:28:16;6.45;;;2.10;;
66575;SDS011;53428;47.686;16.584;2023-03-14T06:33:15;4.43;;;2.03;;
66575;SDS011;53428;47.686;16.584;2023-03-14T06:38:14;5.78;;;2.08;;
66575;SDS011;53428;47.686;16.584;2023-03-14T06:43:14;9.05;;;2.47;;
66575;SDS011;53428;47.686;16.584;2023-03-14T06:48:13;4.55;;;2.08;;
66575;SDS011;53428;47.686;16.584;2023-03-14T06:53:12;8.27;;;2.50;;
66575;SDS011;53428;47.686;16.584;2023-03-14T06:58:11;10.77;;;3.17;;
66575;SDS011;53428;47.686;16.584;2023-03-14T07:03:11;4.05;;;2.38;;
66575;SDS011;53428;47.686;16.584;2023-03-14T07:08:12;9.00;;;2.45;;
66575;SDS011;53428;47.686;16.584;2023-03-14T07:13:11;8.43;;;2.17;;
66575;SDS011;53428;47.686;16.584;2023-03-14T07:18:11;10.68;;;2.75;;
66575;SDS011;53428;47.686;16.584;2023-03-14T07:23:10;4.63;;;2.00;;
66575;SDS011;53428;47.686;16.584;2023-03-14T07:28:09;3.13;;;1.88;;
66575;SDS011;53428;47.686;16.584;2023-03-14T07:33:09;5.82;;;2.13;;
66575;SDS011;53428;47.686;16.584;2023-03-14T07:38:08;7.88;;;2.30;;
66575;SDS011;53428;47.686;16.584;2023-03-14T07:43:07;6.70;;;2.15;;
66575;SDS011;53428;47.686;16.584;2023-03-14T07:48:07;3.92;;;1.98;;
66575;SDS011;53428;47.686;16.584;2023-03-14T07:53:06;3.78;;;1.98;;
66575;SDS011;53428;47.686;16.584;2023-03-14T07:58:05;8.52;;;2.25;;
66575;SDS011;53428;47.686;16.584;2023-03-14T08:03:05;4.00;;;2.08;;
66575;SDS011;53428;47.686;16.584;2023-03-14T08:08:04;4.38;;;2.35;;
66575;SDS011;53428;47.686;16.584;2023-03-14T08:13:04;4.22;;;1.52;;
66575;SDS011;53428;47.686;16.584;2023-03-14T08:18:04;7.50;;;2.88;;
66575;SDS011;53428;47.686;16.584;2023-03-14T08:23:04;6.85;;;2.00;;
66575;SDS011;53428;47.686;16.584;2023-03-14T08:28:03;4.97;;;1.92;;
66575;SDS011;53428;47.686;16.584;2023-03-14T08:33:03;3.60;;;2.10;;
66575;SDS011;53428;47.686;16.584;2023-03-14T08:38:02;4.40;;;1.80;;
66575;SDS011;53428;47.686;16.584;2023-03-14T08:43:02;7.80;;;1.98;;
66575;SDS011;53428;47.686;16.584;2023-03-14T08:48:01;3.22;;;1.60;;
66575;SDS011;53428;47.686;16.584;2023-03-14T08:53:02;3.85;;;1.75;;
66575;SDS011;53428;47.686;16.584;2023-03-14T08:58:04;6.60;;;1.90;;
66575;SDS011;53428;47.686;16.584;2023-03-14T09:03:03;5.25;;;1.88;;
66575;SDS011;53428;47.686;16.584;2023-03-14T09:08:03;8.20;;;1.98;;
66575;SDS011;53428;47.686;16.584;2023-03-14T09:13:02;5.07;;;1.83;;
66575;SDS011;53428;47.686;16.584;2023-03-14T09:18:02;7.93;;;1.83;;
66575;SDS011;53428;47.686;16.584;2023-03-14T09:23:01;5.15;;;1.40;;
66575;SDS011;53428;47.686;16.584;2023-03-14T09:28:00;11.35;;;1.90;;
66575;SDS011;53428;47.686;16.584;2023-03-14T09:33:00;8.38;;;2.50;;
66575;SDS011;53428;47.686;16.584;2023-03-14T09:37:59;4.80;;;1.27;;
66575;SDS011;53428;47.686;16.584;2023-03-14T09:42:58;4.72;;;1.83;;
66575;SDS011;53428;47.686;16.584;2023-03-14T09:47:58;5.40;;;1.85;;
66575;SDS011;53428;47.686;16.584;2023-03-14T09:53:00;4.10;;;1.75;;
66575;SDS011;53428;47.686;16.584;2023-03-14T09:58:05;12.45;;;1.88;;
66575;SDS011;53428;47.686;16.584;2023-03-14T10:08:12;6.82;;;2.05;;
66575;SDS011;53428;47.686;16.584;2023-03-14T10:18:16;3.92;;;1.52;;
66575;SDS011;53428;47.686;16.584;2023-03-14T10:28:25;5.00;;;1.75;;
66575;SDS011;53428;47.686;16.584;2023-03-14T10:33:27;4.57;;;1.35;;
66575;SDS011;53428;47.686;16.584;2023-03-14T10:38:30;3.80;;;1.48;;
66575;SDS011;53428;47.686;16.584;2023-03-14T10:43:32;6.18;;;1.50;;
66575;SDS011;53428;47.686;16.584;2023-03-14T10:53:42;3.70;;;1.45;;
66575;SDS011;53428;47.686;16.584;2023-03-14T10:58:48;7.00;;;1.42;;
66575;SDS011;53428;47.686;16.584;2023-03-14T11:03:51;3.47;;;1.60;;
66575;SDS011;53428;47.686;16.584;2023-03-14T11:24:39;2.20;;;1.00;;
66575;SDS011;53428;47.686;16.584;2023-03-14T11:35:26;4.22;;;1.40;;
66575;SDS011;53428;47.686;16.584;2023-03-14T11:40:36;2.53;;;1.83;;
66575;SDS011;53428;47.686;16.584;2023-03-14T11:45:38;2.55;;;1.20;;
66575;SDS011;53428;47.686;16.584;2023-03-14T11:50:39;3.30;;;1.25;;
66575;SDS011;53428;47.686;16.584;2023-03-14T11:55:42;2.22;;;1.10;;
66575;SDS011;53428;47.686;16.584;2023-03-14T12:00:43;4.20;;;1.20;;
66575;SDS011;53428;47.686;16.584;2023-03-14T12:05:53;6.47;;;1.80;;
66575;SDS011;53428;47.686;16.584;2023-03-14T12:16:06;9.00;;;4.22;;
66575;SDS011;53428;47.686;16.584;2023-03-14T12:21:23;5.40;;;3.08;;
66575;SDS011;53428;47.686;16.584;2023-03-14T12:26:50;5.97;;;1.92;;
66575;SDS011;53428;47.686;16.584;2023-03-14T12:37:37;3.72;;;1.45;;
66575;SDS011;53428;47.686;16.584;2023-03-14T12:42:51;0.85;;;0.80;;
66575;SDS011;53428;47.686;16.584;2023-03-14T12:48:10;9.45;;;4.97;;
66575;SDS011;53428;47.686;16.584;2023-03-14T13:04:29;6.13;;;3.20;;
66575;SDS011;53428;47.686;16.584;2023-03-14T13:14:31;1.05;;;0.85;;
66575;SDS011;53428;47.686;16.584;2023-03-14T13:19:32;0.90;;;0.80;;
66575;SDS011;53428;47.686;16.584;2023-03-14T13:24:33;0.65;;;0.65;;
66575;SDS011;53428;47.686;16.584;2023-03-14T13:29:33;1.45;;;0.73;;
66575;SDS011;53428;47.686;16.584;2023-03-14T13:34:35;0.90;;;0.80;;
66575;SDS011;53428;47.686;16.584;2023-03-14T13:39:34;1.70;;;0.80;;
66575;SDS011;53428;47.686;16.584;2023-03-14T13:44:43;1.05;;;0.88;;
66575;SDS011;53428;47.686;16.584;2023-03-14T13:49:43;0.90;;;0.88;;
66575;SDS011;53428;47.686;16.584;2023-03-14T13:54:43;0.85;;;0.82;;
66575;SDS011;53428;47.686;16.584;2023-03-14T13:59:43;2.70;;;1.30;;
66575;SDS011;53428;47.686;16.584;2023-03-14T14:04:42;1.67;;;0.93;;
66575;SDS011;53428;47.686;16.584;2023-03-14T14:09:43;1.13;;;1.02;;
66575;SDS011;53428;47.686;16.584;2023-03-14T14:14:47;1.45;;;0.57;;
66575;SDS011;53428;47.686;16.584;2023-03-14T14:19:48;2.60;;;0.57;;
66575;SDS011;53428;47.686;16.584;2023-03-14T14:24:49;3.47;;;1.40;;
66575;SDS011;53428;47.686;16.584;2023-03-14T14:35:34;0.60;;;0.60;;
66575;SDS011;53428;47.686;16.584;2023-03-14T14:40:33;0.60;;;0.60;;
66575;SDS011;53428;47.686;16.584;2023-03-14T14:45:33;1.95;;;1.40;;
66575;SDS011;53428;47.686;16.584;2023-03-14T15:00:39;0.47;;;0.35;;
66575;SDS011;53428;47.686;16.584;2023-03-14T15:05:40;3.67;;;1.52;;
66575;SDS011;53428;47.686;16.584;2023-03-14T15:10:40;3.65;;;1.35;;
66575;SDS011;53428;47.686;16.584;2023-03-14T15:15:40;1.50;;;0.70;;
66575;SDS011;53428;47.686;16.584;2023-03-14T15:20:40;3.08;;;0.60;;
66575;SDS011;53428;47.686;16.584;2023-03-14T15:25:41;0.50;;;0.50;;
66575;SDS011;53428;47.686;16.584;2023-03-14T15:30:43;1.08;;;0.43;;
66575;SDS011;53428;47.686;16.584;2023-03-14T15:35:42;3.05;;;1.08;;
66575;SDS011;53428;47.686;16.584;2023-03-14T15:40:41;0.82;;;0.80;;
66575;SDS011;53428;47.686;16.584;2023-03-14T15:45:44;2.42;;;1.60;;
66575;SDS011;53428;47.686;16.584;2023-03-14T15:50:43;2.65;;;1.48;;
66575;SDS011;53428;47.686;16.584;2023-03-14T15:55:43;1.13;;;0.77;;
66575;SDS011;53428;47.686;16.584;2023-03-14T16:00:42;0.88;;;0.85;;
66575;SDS011;53428;47.686;16.584;2023-03-14T16:05:41;5.30;;;1.23;;
66575;SDS011;53428;47.686;16.584;2023-03-14T16:10:41;3.40;;;1.23;;
66575;SDS011;53428;47.686;16.584;2023-03-14T16:15:40;2.90;;;1.35;;
66575;SDS011;53428;47.686;16.584;2023-03-14T16:20:55;12.10;;;4.20;;
66575;SDS011;53428;47.686;16.584;2023-03-14T16:25:57;6.75;;;4.03;;
66575;SDS011;53428;47.686;16.584;2023-03-14T16:31:00;7.88;;;4.30;;
66575;SDS011;53428;47.686;16.584;2023-03-14T16:36:05;10.00;;;3.90;;
66575;SDS011;53428;47.686;16.584;2023-03-14T16:41:18;16.60;;;6.75;;
66575;SDS011;53428;47.686;16.584;2023-03-14T16:46:18;21.40;;;9.35;;
66575;SDS011;53428;47.686;16.584;2023-03-14T16:51:19;13.00;;;7.43;;
66575;SDS011;53428;47.686;16.584;2023-03-14T16:56:19;16.27;;;6.30;;
66575;SDS011;53428;47.686;16.584;2023-03-14T17:01:19;9.70;;;5.53;;
66575;SDS011;53428;47.686;16.584;2023-03-14T17:06:20;13.55;;;8.20;;
66575;SDS011;53428;47.686;16.584;2023-03-14T17:11:24;14.82;;;6.90;;
66575;SDS011;53428;47.686;16.584;2023-03-14T17:16:23;18.02;;;5.30;;
66575;SDS011;53428;47.686;16.584;2023-03-14T17:21:23;8.40;;;4.70;;
66575;SDS011;53428;47.686;16.584;2023-03-14T17:26:24;18.00;;;7.47;;
66575;SDS011;53428;47.686;16.584;2023-03-14T17:31:24;10.55;;;5.47;;
66575;SDS011;53428;47.686;16.584;2023-03-14T17:42:37;12.15;;;6.30;;
66575;SDS011;53428;47.686;16.584;2023-03-14T17:47:37;20.75;;;7.85;;
66575;SDS011;53428;47.686;16.584;2023-03-14T17:52:36;135.60;;;52.10;;
66575;SDS011;53428;47.686;16.584;2023-03-14T17:57:36;171.05;;;62.90;;
66575;SDS011;53428;47.686;16.584;2023-03-14T18:02:38;102.18;;;40.95;;
66575;SDS011;53428;47.686;16.584;2023-03-14T18:07:40;90.30;;;36.22;;
66575;SDS011;53428;47.686;16.584;2023-03-14T18:12:40;44.33;;;19.77;;
66575;SDS011;53428;47.686;16.584;2023-03-14T18:17:40;16.85;;;8.73;;
66575;SDS011;53428;47.686;16.584;2023-03-14T18:22:40;13.60;;;5.22;;
66575;SDS011;53428;47.686;16.584;2023-03-14T18:27:40;6.00;;;4.03;;
66575;SDS011;53428;47.686;16.584;2023-03-14T18:32:40;7.13;;;4.45;;
66575;SDS011;53428;47.686;16.584;2023-03-14T18:37:40;13.23;;;7.20;;
66575;SDS011;53428;47.686;16.584;2023-03-14T18:42:40;16.52;;;8.55;;
66575;SDS011;53428;47.686;16.584;2023-03-14T18:47:40;26.20;;;10.77;;
66575;SDS011;53428;47.686;16.584;2023-03-14T18:52:40;16.58;;;9.20;;
66575;SDS011;53428;47.686;16.584;2023-03-14T18:57:42;11.52;;;6.60;;
66575;SDS011;53428;47.686;16.584;2023-03-14T19:02:42;8.10;;;5.50;;
66575;SDS011;53428;47.686;16.584;2023-03-14T19:07:42;17.02;;;10.25;;
66575;SDS011;53428;47.686;16.584;2023-03-14T19:12:42;6.18;;;3.25;;
66575;SDS011;53428;47.686;16.584;2023-03-14T19:17:42;7.05;;;4.68;;
66575;SDS011;53428;47.686;16.584;2023-03-14T19:22:42;23.13;;;10.90;;
66575;SDS011;53428;47.686;16.584;2023-03-14T19:27:43;16.13;;;9.65;;
66575;SDS011;53428;47.686;16.584;2023-03-14T19:32:43;36.15;;;13.32;;
66575;SDS011;53428;47.686;16.584;2023-03-14T19:37:43;21.02;;;9.60;;
66575;SDS011;53428;47.686;16.584;2023-03-14T19:47:45;6.53;;;3.60;;
66575;SDS011;53428;47.686;16.584;2023-03-14T19:52:47;7.47;;;4.22;;
66575;SDS011;53428;47.686;16.584;2023-03-14T19:57:48;7.97;;;4.30;;
66575;SDS011;53428;47.686;16.584;2023-03-14T20:02:50;0.70;;;0.52;;
66575;SDS011;53428;47.686;16.584;2023-03-14T20:07:50;4.88;;;2.22;;
66575;SDS011;53428;47.686;16.584;2023-03-14T20:12:50;1.73;;;0.60;;
66575;SDS011;53428;47.686;16.584;2023-03-14T20:17:50;2.10;;;0.70;;
66575;SDS011;53428;47.686;16.584;2023-03-14T20:22:50;0.90;;;0.43;;
66575;SDS011;53428;47.686;16.584;2023-03-14T20:27:50;1.15;;;0.70;;
66575;SDS011;53428;47.686;16.584;2023-03-14T20:32:50;2.05;;;0.70;;
66575;SDS011;53428;47.686;16.584;2023-03-14T20:37:52;0.50;;;0.50;;
66575;SDS011;53428;47.686;16.584;2023-03-14T20:42:55;0.70;;;0.68;;
66575;SDS011;53428;47.686;16.584;2023-03-14T20:47:55;0.50;;;0.50;;
66575;SDS011;53428;47.686;16.584;2023-03-14T20:52:55;2.08;;;0.45;;
66575;SDS011;53428;47.686;16.584;2023-03-14T20:57:55;1.17;;;0.70;;
66575;SDS011;53428;47.686;16.584;2023-03-14T21:02:55;1.67;;;0.80;;
66575;SDS011;53428;47.686;16.584;2023-03-14T21:07:55;2.28;;;0.50;;
66575;SDS011;53428;47.686;16.584;2023-03-14T21:12:54;0.65;;;0.65;;
66575;SDS011;53428;47.686;16.584;2023-03-14T21:17:55;0.63;;;0.57;;
66575;SDS011;53428;47.686;16.584;2023-03-14T21:22:55;1.60;;;0.70;;
66575;SDS011;53428;47.686;16.584;2023-03-14T21:27:55;3.35;;;0.80;;
66575;SDS011;53428;47.686;16.584;2023-03-14T21:32:55;0.82;;;0.80;;
66575;SDS011;53428;47.686;16.584;2023-03-14T21:37:55;0.45;;;0.45;;
66575;SDS011;53428;47.686;16.584;2023-03-14T21:42:55;0.70;;;0.70;;
66575;SDS011;53428;47.686;16.584;2023-03-14T21:47:55;2.50;;;1.15;;
66575;SDS011;53428;47.686;16.584;2023-03-14T21:52:56;2.00;;;0.70;;
66575;SDS011;53428;47.686;16.584;2023-03-14T21:57:57;0.65;;;0.65;;
66575;SDS011;53428;47.686;16.584;2023-03-14T22:02:57;0.85;;;0.70;;
66575;SDS011;53428;47.686;16.584;2023-03-14T22:07:56;3.15;;;0.90;;
66575;SDS011;53428;47.686;16.584;2023-03-14T22:12:58;1.00;;;0.40;;
66575;SDS011;53428;47.686;16.584;2023-03-14T22:17:58;1.60;;;1.00;;
66575;SDS011;53428;47.686;16.584;2023-03-14T22:22:57;1.17;;;1.08;;
66575;SDS011;53428;47.686;16.584;2023-03-14T22:27:56;0.40;;;0.40;;
66575;SDS011;53428;47.686;16.584;2023-03-14T22:32:56;0.60;;;0.60;;
66575;SDS011;53428;47.686;16.584;2023-03-14T22:37:55;2.03;;;0.85;;
66575;SDS011;53428;47.686;16.584;2023-03-14T22:42:55;2.67;;;0.60;;
66575;SDS011;53428;47.686;16.584;2023-03-14T22:47:54;1.75;;;0.57;;
66575;SDS011;53428;47.686;16.584;2023-03-14T22:52:55;2.42;;;0.70;;
66575;SDS011;53428;47.686;16.584;2023-03-14T22:57:56;2.83;;;1.00;;
66575;SDS011;53428;47.686;16.584;2023-03-14T23:02:56;6.07;;;0.90;;
66575;SDS011;53428;47.686;16.584;2023-03-14T23:07:56;1.88;;;0.80;;
66575;SDS011;53428;47.686;16.584;2023-03-14T23:12:55;1.77;;;0.50;;
66575;SDS011;53428;47.686;16.584;2023-03-14T23:17:55;1.63;;;0.60;;
66575;SDS011;53428;47.686;16.584;2023-03-14T23:22:54;3.72;;;0.73;;
66575;SDS011;53428;47.686;16.584;2023-03-14T23:27:54;2.88;;;1.02;;
66575;SDS011;53428;47.686;16.584;2023-03-14T23:32:53;2.15;;;0.80;;
66575;SDS011;53428;47.686;16.584;2023-03-14T23:37:52;1.10;;;0.85;;
66575;SDS011;53428;47.686;16.584;2023-03-14T23:42:51;0.50;;;0.50;;
66575;SDS011;53428;47.686;16.584;2023-03-14T23:47:50;2.95;;;1.00;;
66575;SDS011;53428;47.686;16.584;2023-03-14T23:52:50;4.57;;;0.73;;
66575;SDS011;53428;47.686;16.584;2023-03-14T23:57:49;2.38;;;1.13;;
